createdAt,value
2024-05-09T00:00:30.778Z,8.72
2024-05-09T00:01:27.417Z,8.72
2024-05-09T00:02:25.479Z,8.60
2024-05-09T00:03:25.417Z,8.65
2024-05-09T00:04:25.418Z,8.66
2024-05-09T00:05:25.497Z,8.65
2024-05-09T00:06:25.334Z,8.71
2024-05-09T00:07:25.324Z,8.69
2024-05-09T00:08:25.343Z,8.58
2024-05-09T00:09:25.330Z,8.57
2024-05-09T00:10:33.213Z,8.63
2024-05-09T00:11:27.414Z,8.60
2024-05-09T00:12:25.438Z,8.48
2024-05-09T00:13:25.296Z,8.48
2024-05-09T00:14:25.442Z,8.45
2024-05-09T00:15:25.272Z,8.57
2024-05-09T00:16:25.260Z,8.42
2024-05-09T00:17:25.397Z,8.51
2024-05-09T00:18:25.412Z,8.55
2024-05-09T00:19:25.325Z,8.45
2024-05-09T00:20:33.219Z,8.48
2024-05-09T00:21:26.237Z,8.48
2024-05-09T00:22:25.224Z,8.39
2024-05-09T00:23:25.234Z,8.40
2024-05-09T00:24:25.199Z,8.29
2024-05-09T00:25:25.209Z,8.35
2024-05-09T00:26:25.291Z,8.35
2024-05-09T00:27:25.192Z,8.40
2024-05-09T00:28:25.182Z,8.40
2024-05-09T00:29:25.299Z,8.33
2024-05-09T00:30:33.214Z,8.36
2024-05-09T00:31:26.162Z,8.48
2024-05-09T00:32:25.281Z,8.44
2024-05-09T00:33:25.346Z,8.40
2024-05-09T00:34:25.250Z,8.44
2024-05-09T00:35:25.300Z,8.30
2024-05-09T00:36:25.122Z,8.30
2024-05-09T00:37:25.109Z,8.39
2024-05-09T00:38:25.129Z,8.22
2024-05-09T00:39:25.087Z,8.28
2024-05-09T00:40:35.101Z,8.28
2024-05-09T00:41:27.149Z,8.28
2024-05-09T00:42:25.083Z,8.25
2024-05-09T00:43:25.069Z,8.20
2024-05-09T00:44:25.193Z,8.22
2024-05-09T00:45:25.050Z,8.18
2024-05-09T00:46:25.076Z,8.12
2024-05-09T00:47:25.344Z,8.20
2024-05-09T00:48:25.163Z,8.22
2024-05-09T00:49:25.218Z,8.22
2024-05-09T00:50:33.816Z,8.20
2024-05-09T00:51:27.034Z,8.17
2024-05-09T00:52:25.026Z,8.08
2024-05-09T00:53:25.064Z,8.12
2024-05-09T00:54:24.985Z,8.08
2024-05-09T00:55:24.987Z,8.11
2024-05-09T00:56:25.106Z,8.11
2024-05-09T00:57:24.962Z,8.07
2024-05-09T00:58:24.981Z,8.08
2024-05-09T00:59:25.233Z,8.00
2024-05-09T01:00:31.661Z,7.94
2024-05-09T01:01:27.032Z,8.04
2024-05-09T01:02:25.072Z,8.02
2024-05-09T01:03:25.107Z,7.97
2024-05-09T01:04:24.927Z,7.99
2024-05-09T01:05:24.927Z,7.99
2024-05-09T01:06:24.906Z,7.96
2024-05-09T01:07:24.900Z,7.96
2024-05-09T01:08:25.056Z,7.93
2024-05-09T01:09:24.884Z,7.97
2024-05-09T01:10:32.228Z,7.92
2024-05-09T01:11:25.920Z,7.89
2024-05-09T01:12:25.004Z,7.87
2024-05-09T01:13:24.859Z,7.92
2024-05-09T01:14:24.901Z,7.84
2024-05-09T01:15:24.841Z,7.94
2024-05-09T01:16:24.836Z,7.94
2024-05-09T01:17:25.019Z,7.84
2024-05-09T01:18:24.992Z,7.85
2024-05-09T01:19:24.976Z,7.81
2024-05-09T01:20:36.495Z,7.78
2024-05-09T01:21:26.817Z,7.93
2024-05-09T01:22:24.798Z,7.84
2024-05-09T01:23:24.818Z,7.75
2024-05-09T01:24:24.834Z,7.72
2024-05-09T01:25:24.762Z,7.79
2024-05-09T01:26:24.876Z,7.77
2024-05-09T01:27:24.767Z,7.67
2024-05-09T01:28:24.761Z,7.74
2024-05-09T01:29:24.848Z,7.72
2024-05-09T01:30:31.865Z,7.58
2024-05-09T01:31:25.729Z,7.60
2024-05-09T01:32:24.810Z,7.55
2024-05-09T01:33:24.855Z,7.60
2024-05-09T01:34:24.732Z,7.56
2024-05-09T01:35:24.794Z,7.52
2024-05-09T01:36:24.910Z,7.53
2024-05-09T01:37:24.705Z,7.62
2024-05-09T01:38:24.717Z,7.49
2024-05-09T01:39:24.673Z,7.53
2024-05-09T01:40:33.605Z,7.69
2024-05-09T01:41:26.718Z,7.59
2024-05-09T01:42:25.475Z,7.63
2024-05-09T01:43:24.653Z,7.62
2024-05-09T01:44:24.731Z,7.56
2024-05-09T01:45:24.897Z,7.66
2024-05-09T01:46:24.639Z,7.59
2024-05-09T01:47:24.724Z,7.58
2024-05-09T01:48:24.840Z,7.60
2024-05-09T01:49:24.716Z,7.53
2024-05-09T01:50:35.852Z,7.50
2024-05-09T01:51:26.600Z,7.47
2024-05-09T01:52:24.599Z,7.44
2024-05-09T01:53:24.644Z,7.42
2024-05-09T01:54:24.582Z,7.37
2024-05-09T01:55:24.597Z,7.41
2024-05-09T01:56:24.624Z,7.32
2024-05-09T01:57:24.575Z,7.26
2024-05-09T01:58:24.574Z,7.26
2024-05-09T01:59:24.680Z,7.24
2024-05-09T02:00:33.905Z,7.24
2024-05-09T02:01:26.541Z,7.26
2024-05-09T02:02:24.563Z,7.32
2024-05-09T02:03:24.615Z,7.29
2024-05-09T02:04:24.669Z,7.24
2024-05-09T02:05:24.594Z,7.19
2024-05-09T02:06:24.502Z,7.15
2024-05-09T02:07:24.491Z,7.23
2024-05-09T02:08:24.555Z,7.16
2024-05-09T02:09:24.485Z,7.15
2024-05-09T02:10:31.724Z,7.12
2024-05-09T02:11:25.587Z,7.07
2024-05-09T02:12:24.629Z,7.01
2024-05-09T02:13:24.477Z,6.98
2024-05-09T02:14:24.518Z,7.02
2024-05-09T02:15:24.436Z,6.97
2024-05-09T02:16:24.436Z,6.95
2024-05-09T02:17:24.593Z,6.89
2024-05-09T02:18:24.488Z,6.81
2024-05-09T02:19:24.710Z,6.94
2024-05-09T02:20:33.127Z,6.90
2024-05-09T02:21:26.403Z,6.86
2024-05-09T02:22:24.397Z,6.83
2024-05-09T02:23:24.467Z,6.84
2024-05-09T02:24:24.521Z,6.79
2024-05-09T02:25:24.369Z,6.86
2024-05-09T02:26:24.410Z,6.86
2024-05-09T02:27:24.360Z,6.76
2024-05-09T02:28:24.360Z,6.84
2024-05-09T02:29:24.416Z,6.77
2024-05-09T02:30:31.147Z,6.71
2024-05-09T02:31:26.333Z,6.81
2024-05-09T02:32:24.433Z,6.76
2024-05-09T02:33:24.492Z,6.83
2024-05-09T02:34:24.350Z,6.72
2024-05-09T02:35:24.368Z,6.77
2024-05-09T02:36:24.291Z,6.66
2024-05-09T02:37:24.287Z,6.83
2024-05-09T02:38:24.300Z,6.76
2024-05-09T02:39:24.291Z,6.72
2024-05-09T02:40:33.211Z,6.69
2024-05-09T02:41:26.322Z,6.63
2024-05-09T02:42:24.260Z,6.66
2024-05-09T02:43:24.259Z,6.65
2024-05-09T02:44:24.319Z,6.68
2024-05-09T02:45:24.240Z,6.69
2024-05-09T02:46:24.220Z,6.59
2024-05-09T02:47:24.351Z,6.62
2024-05-09T02:48:24.360Z,6.56
2024-05-09T02:49:24.359Z,6.66
2024-05-09T02:50:33.087Z,6.59
2024-05-09T02:51:26.189Z,6.62
2024-05-09T02:52:24.199Z,6.58
2024-05-09T02:53:24.222Z,6.56
2024-05-09T02:54:24.177Z,6.56
2024-05-09T02:55:24.172Z,6.44
2024-05-09T02:56:24.220Z,6.59
2024-05-09T02:57:24.159Z,6.53
2024-05-09T02:58:24.160Z,6.48
2024-05-09T02:59:24.256Z,6.53
2024-05-09T03:00:29.941Z,6.50
2024-05-09T03:01:26.186Z,6.47
2024-05-09T03:02:24.231Z,6.53
2024-05-09T03:03:24.692Z,6.56
2024-05-09T03:04:24.109Z,6.53
2024-05-09T03:05:24.152Z,6.53
2024-05-09T03:06:24.122Z,6.50
2024-05-09T03:07:24.096Z,6.56
2024-05-09T03:08:24.108Z,6.50
2024-05-09T03:09:24.128Z,6.54
2024-05-09T03:10:28.507Z,6.51
2024-05-09T03:11:26.215Z,6.65
2024-05-09T03:12:24.131Z,6.65
2024-05-09T03:13:24.064Z,6.59
2024-05-09T03:14:24.152Z,6.68
2024-05-09T03:15:24.030Z,6.58
2024-05-09T03:16:24.034Z,6.65
2024-05-09T03:17:24.535Z,6.63
2024-05-09T03:18:24.079Z,6.65
2024-05-09T03:19:24.107Z,6.61
2024-05-09T03:20:27.778Z,6.54
2024-05-09T03:21:25.002Z,6.66
2024-05-09T03:22:24.003Z,6.63
2024-05-09T03:23:24.036Z,6.68
2024-05-09T03:24:23.998Z,6.56
2024-05-09T03:25:23.960Z,6.63
2024-05-09T03:26:23.988Z,6.63
2024-05-09T03:27:23.973Z,6.63
2024-05-09T03:28:23.934Z,6.73
2024-05-09T03:29:24.059Z,6.63
2024-05-09T03:30:31.146Z,6.68
2024-05-09T03:31:25.923Z,6.58
2024-05-09T03:32:24.116Z,6.63
2024-05-09T03:33:24.214Z,6.65
2024-05-09T03:34:23.946Z,6.62
2024-05-09T03:35:24.033Z,6.69
2024-05-09T03:36:23.892Z,6.50
2024-05-09T03:37:23.886Z,6.56
2024-05-09T03:38:23.945Z,6.62
2024-05-09T03:39:23.862Z,6.53
2024-05-09T03:40:26.692Z,6.51
2024-05-09T03:41:25.928Z,6.58
2024-05-09T03:42:23.863Z,6.50
2024-05-09T03:43:23.848Z,6.56
2024-05-09T03:44:23.858Z,6.54
2024-05-09T03:45:23.856Z,6.56
2024-05-09T03:46:23.822Z,6.53
2024-05-09T03:47:24.024Z,6.54
2024-05-09T03:48:23.954Z,6.51
2024-05-09T03:49:24.141Z,6.62
2024-05-09T03:50:30.128Z,6.54
2024-05-09T03:51:25.780Z,6.46
2024-05-09T03:52:23.782Z,6.46
2024-05-09T03:53:23.789Z,6.47
2024-05-09T03:54:23.775Z,6.47
2024-05-09T03:55:23.762Z,6.41
2024-05-09T03:56:23.839Z,6.44
2024-05-09T03:57:23.744Z,6.50
2024-05-09T03:58:23.756Z,6.51
2024-05-09T03:59:23.776Z,6.51
2024-05-09T04:00:31.176Z,6.41
2024-05-09T04:01:24.833Z,6.51
2024-05-09T04:02:23.834Z,6.63
2024-05-09T04:03:23.815Z,6.56
2024-05-09T04:04:23.835Z,6.62
2024-05-09T04:05:23.723Z,6.62
2024-05-09T04:06:56.101Z,6.65
2024-05-09T04:07:56.146Z,6.58
2024-05-09T04:08:23.693Z,6.65
2024-05-09T04:09:23.678Z,6.69
2024-05-09T04:10:30.525Z,6.73
2024-05-09T04:11:25.717Z,6.68
2024-05-09T04:12:23.670Z,6.66
2024-05-09T04:13:23.971Z,6.68
2024-05-09T04:14:23.664Z,6.68
2024-05-09T04:15:23.638Z,6.69
2024-05-09T04:16:23.624Z,6.62
2024-05-09T04:17:23.663Z,6.65
2024-05-09T04:18:23.723Z,6.56
2024-05-09T04:19:23.689Z,6.65
2024-05-09T04:20:34.254Z,6.66
2024-05-09T04:21:25.576Z,6.65
2024-05-09T04:22:23.577Z,6.62
2024-05-09T04:23:23.639Z,6.63
2024-05-09T04:24:23.565Z,6.54
2024-05-09T04:25:23.568Z,6.56
2024-05-09T04:26:23.604Z,6.63
2024-05-09T04:27:23.536Z,6.61
2024-05-09T04:28:23.531Z,6.63
2024-05-09T04:29:23.629Z,6.65
2024-05-09T04:30:33.940Z,6.59
2024-05-09T04:31:25.517Z,6.68
2024-05-09T04:32:23.619Z,6.66
2024-05-09T04:33:23.762Z,6.76
2024-05-09T04:34:23.563Z,6.71
2024-05-09T04:35:23.605Z,6.77
2024-05-09T04:36:23.474Z,6.73
2024-05-09T04:37:23.463Z,6.84
2024-05-09T04:38:23.641Z,6.72
2024-05-09T04:39:23.465Z,6.79
2024-05-09T04:40:30.810Z,6.86
2024-05-09T04:41:25.519Z,6.80
2024-05-09T04:42:23.440Z,6.81
2024-05-09T04:43:23.441Z,6.87
2024-05-09T04:44:23.430Z,6.86
2024-05-09T04:45:23.407Z,6.86
2024-05-09T04:46:23.406Z,6.91
2024-05-09T04:47:23.510Z,6.95
2024-05-09T04:48:23.524Z,6.97
2024-05-09T04:49:23.530Z,7.07
2024-05-09T04:50:30.361Z,7.02
2024-05-09T04:51:25.388Z,7.08
2024-05-09T04:52:23.367Z,7.01
2024-05-09T04:53:23.503Z,7.15
2024-05-09T04:54:33.521Z,6.99
2024-05-09T04:55:25.375Z,7.13
2024-05-09T04:56:23.405Z,7.07
2024-05-09T04:57:23.330Z,7.17
2024-05-09T04:58:23.348Z,7.22
2024-05-09T04:59:23.375Z,7.15
2024-05-09T05:00:31.981Z,7.19
2024-05-09T05:01:25.416Z,7.27
2024-05-09T05:02:23.416Z,7.15
2024-05-09T05:03:23.457Z,7.32
2024-05-09T05:04:23.309Z,7.31
2024-05-09T05:05:23.322Z,7.35
2024-05-09T05:06:23.282Z,7.29
2024-05-09T05:07:23.361Z,7.41
2024-05-09T05:08:23.323Z,7.37
2024-05-09T05:09:23.244Z,7.40
2024-05-09T05:10:32.910Z,7.47
2024-05-09T05:11:25.347Z,7.53
2024-05-09T05:12:23.388Z,7.55
2024-05-09T05:13:24.130Z,7.53
2024-05-09T05:14:23.309Z,7.60
2024-05-09T05:15:23.213Z,7.71
2024-05-09T05:16:23.224Z,7.62
2024-05-09T05:17:23.914Z,7.75
2024-05-09T05:18:23.354Z,7.79
2024-05-09T05:19:23.294Z,7.78
2024-05-09T05:20:30.434Z,7.75
2024-05-09T05:21:25.273Z,7.81
2024-05-09T05:22:23.173Z,7.82
2024-05-09T05:23:23.566Z,7.79
2024-05-09T05:24:23.154Z,7.85
2024-05-09T05:25:55.987Z,7.85
2024-05-09T05:26:23.237Z,7.90
2024-05-09T05:27:23.123Z,7.99
2024-05-09T05:28:23.214Z,7.97
2024-05-09T05:29:23.145Z,7.99
2024-05-09T05:30:28.982Z,8.02
2024-05-09T05:31:25.161Z,8.15
2024-05-09T05:32:23.205Z,8.22
2024-05-09T05:33:23.606Z,8.17
2024-05-09T05:34:23.111Z,8.25
2024-05-09T05:35:23.220Z,8.25
2024-05-09T05:36:23.071Z,8.35
2024-05-09T05:37:23.077Z,8.42
2024-05-09T05:38:26.257Z,8.44
2024-05-09T05:39:25.046Z,8.53
2024-05-09T05:40:32.133Z,8.48
2024-05-09T05:41:25.048Z,8.54
2024-05-09T05:42:23.056Z,8.58
2024-05-09T05:43:23.022Z,8.66
2024-05-09T05:44:23.048Z,8.71
2024-05-09T05:45:23.011Z,8.75
2024-05-09T05:46:22.998Z,8.78
2024-05-09T05:47:23.094Z,8.83
2024-05-09T05:48:23.255Z,8.90
2024-05-09T05:49:23.191Z,8.94
2024-05-09T05:50:28.035Z,9.09
2024-05-09T05:51:25.006Z,9.18
2024-05-09T05:52:22.961Z,9.23
2024-05-09T05:53:23.000Z,9.30
2024-05-09T05:54:24.412Z,9.48
2024-05-09T05:55:23.951Z,9.63
2024-05-09T05:56:23.008Z,9.66
2024-05-09T05:57:22.937Z,9.81
2024-05-09T05:58:22.966Z,9.91
2024-05-09T05:59:22.963Z,10.04
2024-05-09T06:00:29.512Z,10.10
2024-05-09T06:01:24.926Z,10.36
2024-05-09T06:02:23.038Z,10.42
2024-05-09T06:03:22.987Z,10.60
2024-05-09T06:04:22.910Z,10.65
2024-05-09T06:05:23.845Z,10.80
2024-05-09T06:06:22.871Z,10.89
2024-05-09T06:07:22.954Z,11.13
2024-05-09T06:08:23.727Z,11.27
2024-05-09T06:09:22.940Z,11.56
2024-05-09T06:10:26.369Z,11.71
2024-05-09T06:11:24.979Z,11.97
2024-05-09T06:12:22.976Z,12.09
2024-05-09T06:13:22.822Z,12.30
2024-05-09T06:14:22.938Z,12.29
2024-05-09T06:15:22.922Z,12.39
2024-05-09T06:16:22.798Z,12.60
2024-05-09T06:17:23.110Z,12.84
2024-05-09T06:18:23.010Z,13.04
2024-05-09T06:19:22.909Z,13.24
2024-05-09T06:20:27.846Z,13.46
2024-05-09T06:21:24.947Z,13.77
2024-05-09T06:22:22.765Z,14.07
2024-05-09T06:23:22.859Z,14.42
2024-05-09T06:24:22.731Z,14.53
2024-05-09T06:25:22.731Z,14.75
2024-05-09T06:26:22.759Z,15.13
2024-05-09T06:27:22.717Z,15.38
2024-05-09T06:28:22.737Z,15.57
2024-05-09T06:29:22.713Z,15.60
2024-05-09T06:30:30.083Z,15.70
2024-05-09T06:31:24.689Z,15.81
2024-05-09T06:32:22.815Z,15.93
2024-05-09T06:33:22.847Z,15.96
2024-05-09T06:34:23.018Z,16.07
2024-05-09T06:35:22.876Z,16.16
2024-05-09T06:36:22.999Z,16.20
2024-05-09T06:37:22.652Z,16.30
2024-05-09T06:38:22.663Z,16.44
2024-05-09T06:39:22.696Z,16.59
2024-05-09T06:40:25.917Z,16.35
2024-05-09T06:41:24.761Z,16.48
2024-05-09T06:42:22.767Z,16.56
2024-05-09T06:43:22.619Z,16.49
2024-05-09T06:44:22.717Z,16.49
2024-05-09T06:45:22.627Z,16.63
2024-05-09T06:46:22.608Z,16.50
2024-05-09T06:47:22.668Z,16.04
2024-05-09T06:48:23.061Z,15.78
2024-05-09T06:49:22.770Z,16.04
2024-05-09T06:50:24.513Z,16.31
2024-05-09T06:51:24.642Z,16.60
2024-05-09T06:52:22.559Z,16.93
2024-05-09T06:53:22.644Z,17.20
2024-05-09T06:54:22.526Z,17.33
2024-05-09T06:55:22.542Z,17.29
2024-05-09T06:56:22.841Z,17.15
2024-05-09T06:57:22.528Z,17.54
2024-05-09T06:58:22.504Z,17.81
2024-05-09T06:59:22.729Z,18.12
2024-05-09T07:00:30.283Z,18.04
2024-05-09T07:01:24.551Z,18.02
2024-05-09T07:02:22.707Z,18.02
2024-05-09T07:03:22.587Z,18.09
2024-05-09T07:04:22.537Z,17.91
2024-05-09T07:05:22.626Z,18.07
2024-05-09T07:06:22.510Z,17.95
2024-05-09T07:07:22.500Z,18.04
2024-05-09T07:08:22.522Z,18.37
2024-05-09T07:09:22.420Z,18.43
2024-05-09T07:10:28.894Z,18.54
2024-05-09T07:11:23.593Z,18.68
2024-05-09T07:12:22.443Z,18.58
2024-05-09T07:13:22.415Z,18.40
2024-05-09T07:14:22.623Z,18.50
2024-05-09T07:15:22.483Z,18.59
2024-05-09T07:16:22.380Z,18.36
2024-05-09T07:17:22.612Z,18.50
2024-05-09T07:18:22.784Z,18.86
2024-05-09T07:19:22.436Z,19.18
2024-05-09T07:20:31.603Z,19.51
2024-05-09T07:21:24.455Z,19.63
2024-05-09T07:22:22.448Z,19.43
2024-05-09T07:23:22.436Z,19.86
2024-05-09T07:24:22.347Z,19.72
2024-05-09T07:25:22.598Z,19.20
2024-05-09T07:26:22.496Z,19.48
2024-05-09T07:27:22.303Z,20.05
2024-05-09T07:28:22.337Z,20.46
2024-05-09T07:29:22.548Z,20.90
2024-05-09T07:30:27.616Z,21.42
2024-05-09T07:31:24.297Z,21.69
2024-05-09T07:32:22.497Z,21.64
2024-05-09T07:33:23.784Z,21.88
2024-05-09T07:34:22.498Z,21.74
2024-05-09T07:35:22.306Z,21.97
2024-05-09T07:36:22.253Z,21.76
2024-05-09T07:37:22.957Z,21.57
2024-05-09T07:38:22.323Z,21.20
2024-05-09T07:39:22.347Z,21.01
2024-05-09T07:40:31.797Z,20.91
2024-05-09T07:41:24.304Z,20.86
2024-05-09T07:42:22.209Z,21.27
2024-05-09T07:43:22.279Z,21.57
2024-05-09T07:44:22.229Z,21.66
2024-05-09T07:45:40.544Z,21.88
2024-05-09T07:47:17.255Z,22.34
2024-05-09T07:48:56.802Z,22.52
2024-05-09T07:53:30.319Z,23.64
2024-05-09T07:54:23.429Z,24.75
2024-05-09T07:55:22.207Z,25.02
2024-05-09T07:56:23.597Z,25.09
2024-05-09T07:57:22.132Z,24.13
2024-05-09T07:58:22.088Z,23.68
2024-05-09T07:59:22.139Z,23.67
2024-05-09T08:00:29.663Z,23.95
2024-05-09T08:01:24.126Z,24.26
2024-05-09T08:02:22.317Z,24.44
2024-05-09T08:03:22.161Z,24.80
2024-05-09T08:04:23.062Z,24.73
2024-05-09T08:05:22.106Z,24.88
2024-05-09T08:06:22.038Z,25.02
2024-05-09T08:07:22.085Z,24.97
2024-05-09T08:08:22.025Z,24.45
2024-05-09T08:09:22.049Z,24.54
2024-05-09T08:10:27.149Z,24.80
2024-05-09T08:11:23.008Z,25.06
2024-05-09T08:12:22.007Z,24.75
2024-05-09T08:13:22.159Z,24.85
2024-05-09T08:14:21.977Z,25.47
2024-05-09T08:15:21.962Z,25.83
2024-05-09T08:16:22.087Z,26.12
2024-05-09T08:17:22.120Z,26.80
2024-05-09T08:18:22.102Z,27.41
2024-05-09T08:19:22.061Z,27.99
2024-05-09T08:20:30.293Z,28.23
2024-05-09T08:21:23.983Z,28.70
2024-05-09T08:22:22.014Z,29.03
2024-05-09T08:23:21.908Z,28.87
2024-05-09T08:24:22.542Z,28.96
2024-05-09T08:25:21.948Z,29.00
2024-05-09T08:26:21.888Z,29.29
2024-05-09T08:27:21.934Z,29.15
2024-05-09T08:28:21.995Z,28.85
2024-05-09T08:29:21.880Z,28.72
2024-05-09T08:30:29.570Z,28.93
2024-05-09T08:31:24.005Z,29.40
2024-05-09T08:32:21.925Z,30.03
2024-05-09T08:33:21.906Z,30.62
2024-05-09T08:34:21.932Z,31.28
2024-05-09T08:35:21.830Z,31.60
2024-05-09T08:36:21.859Z,31.04
2024-05-09T08:37:24.690Z,29.55
2024-05-09T08:38:22.827Z,29.45
2024-05-09T08:39:22.481Z,30.08
2024-05-09T08:40:30.588Z,30.74
2024-05-09T08:41:23.939Z,31.28
2024-05-09T08:42:21.808Z,31.49
2024-05-09T08:43:21.815Z,30.96
2024-05-09T08:44:21.777Z,30.50
2024-05-09T08:45:21.775Z,30.38
2024-05-09T08:46:21.893Z,31.09
2024-05-09T08:47:21.913Z,31.55
2024-05-09T08:48:21.966Z,31.42
2024-05-09T08:49:21.841Z,31.77
2024-05-09T08:50:31.576Z,31.79
2024-05-09T08:51:23.719Z,31.01
2024-05-09T08:52:21.724Z,30.87
2024-05-09T08:53:21.785Z,30.72
2024-05-09T08:54:21.698Z,31.09
2024-05-09T08:55:21.707Z,31.45
2024-05-09T08:56:21.680Z,31.46
2024-05-09T08:57:21.690Z,31.35
2024-05-09T08:58:21.755Z,31.26
2024-05-09T08:59:21.671Z,31.58
2024-05-09T09:00:29.694Z,31.99
2024-05-09T09:01:23.783Z,32.02
2024-05-09T09:02:21.846Z,31.84
2024-05-09T09:03:21.767Z,31.88
2024-05-09T09:04:21.788Z,32.15
2024-05-09T09:05:21.739Z,32.77
2024-05-09T09:06:21.628Z,33.22
2024-05-09T09:07:21.661Z,33.55
2024-05-09T09:08:21.622Z,34.16
2024-05-09T09:09:21.619Z,34.98
2024-05-09T09:10:29.283Z,35.07
2024-05-09T09:11:22.642Z,34.54
2024-05-09T09:12:21.586Z,33.60
2024-05-09T09:13:21.664Z,34.24
2024-05-09T09:14:21.576Z,34.98
2024-05-09T09:15:21.573Z,35.39
2024-05-09T09:16:21.636Z,35.42
2024-05-09T09:17:21.601Z,35.86
2024-05-09T09:18:21.619Z,36.07
2024-05-09T09:19:21.665Z,36.54
2024-05-09T09:20:26.551Z,36.46
2024-05-09T09:21:23.565Z,36.29
2024-05-09T09:22:21.618Z,35.06
2024-05-09T09:23:21.529Z,34.01
2024-05-09T09:24:21.517Z,33.79
2024-05-09T09:25:21.503Z,34.01
2024-05-09T09:26:21.525Z,34.36
2024-05-09T09:27:21.498Z,34.96
2024-05-09T09:28:21.529Z,35.62
2024-05-09T09:29:21.497Z,36.03
2024-05-09T09:30:34.016Z,35.99
2024-05-09T09:31:23.568Z,36.41
2024-05-09T09:32:21.508Z,36.29
2024-05-09T09:33:21.506Z,36.75
2024-05-09T09:34:21.580Z,37.01
2024-05-09T09:35:21.466Z,37.12
2024-05-09T09:36:21.457Z,36.58
2024-05-09T09:37:21.500Z,36.48
2024-05-09T09:38:21.433Z,36.73
2024-05-09T09:39:21.429Z,37.19
2024-05-09T09:40:22.269Z,37.19
2024-05-09T09:41:22.424Z,36.83
2024-05-09T09:42:21.426Z,36.77
2024-05-09T09:43:21.990Z,35.84
2024-05-09T09:44:21.394Z,35.58
2024-05-09T09:45:21.429Z,35.99
2024-05-09T09:46:21.404Z,36.54
2024-05-09T09:47:21.429Z,36.83
2024-05-09T09:48:21.627Z,37.14
2024-05-09T09:49:21.408Z,37.29
2024-05-09T09:50:27.700Z,37.56
2024-05-09T09:51:22.367Z,37.47
2024-05-09T09:52:21.519Z,37.58
2024-05-09T09:53:21.375Z,37.51
2024-05-09T09:54:21.344Z,37.47
2024-05-09T09:55:21.423Z,37.46
2024-05-09T09:56:21.316Z,35.95
2024-05-09T09:57:21.346Z,35.89
2024-05-09T09:58:21.492Z,36.15
2024-05-09T09:59:21.305Z,36.31
2024-05-09T10:00:27.080Z,36.52
2024-05-09T10:01:22.475Z,36.82
2024-05-09T10:02:21.615Z,36.94
2024-05-09T10:03:21.553Z,37.29
2024-05-09T10:04:21.359Z,37.55
2024-05-09T10:05:21.412Z,37.39
2024-05-09T10:06:21.302Z,35.99
2024-05-09T10:07:21.369Z,34.89
2024-05-09T10:08:21.304Z,34.07
2024-05-09T10:09:21.303Z,33.60
2024-05-09T10:10:27.368Z,33.52
2024-05-09T10:11:23.283Z,33.65
2024-05-09T10:12:21.300Z,34.50
2024-05-09T10:13:21.371Z,35.62
2024-05-09T10:14:21.224Z,36.21
2024-05-09T10:15:21.266Z,36.97
2024-05-09T10:16:21.390Z,37.48
2024-05-09T10:17:21.218Z,37.68
2024-05-09T10:18:21.305Z,37.47
2024-05-09T10:19:21.233Z,37.39
2024-05-09T10:20:25.031Z,37.55
2024-05-09T10:21:23.183Z,37.67
2024-05-09T10:22:21.194Z,38.11
2024-05-09T10:23:21.354Z,38.55
2024-05-09T10:24:21.155Z,38.57
2024-05-09T10:25:21.343Z,38.68
2024-05-09T10:26:21.337Z,38.60
2024-05-09T10:27:21.142Z,38.55
2024-05-09T10:28:21.324Z,38.20
2024-05-09T10:29:21.155Z,37.64
2024-05-09T10:30:26.138Z,36.30
2024-05-09T10:31:23.188Z,33.89
2024-05-09T10:32:21.193Z,33.39
2024-05-09T10:33:21.214Z,33.08
2024-05-09T10:34:21.511Z,32.95
2024-05-09T10:35:21.152Z,32.86
2024-05-09T10:36:21.143Z,33.03
2024-05-09T10:37:21.193Z,33.10
2024-05-09T10:38:21.090Z,33.27
2024-05-09T10:39:21.167Z,33.43
2024-05-09T10:41:21.071Z,34.02
2024-05-09T10:42:21.070Z,34.36
2024-05-09T10:43:21.284Z,34.00
2024-05-09T10:44:21.062Z,34.24
2024-05-09T10:45:21.139Z,34.64
2024-05-09T10:46:21.621Z,35.36
2024-05-09T10:47:21.175Z,35.47
2024-05-09T10:48:21.152Z,35.97
2024-05-09T10:49:21.281Z,36.04
2024-05-09T10:50:28.098Z,36.39
2024-05-09T10:51:23.075Z,36.76
2024-05-09T10:52:21.136Z,36.67
2024-05-09T10:53:21.076Z,36.92
2024-05-09T10:54:21.029Z,37.26
2024-05-09T10:55:21.245Z,37.24
2024-05-09T10:56:21.033Z,37.68
2024-05-09T10:57:20.992Z,37.80
2024-05-09T10:58:21.019Z,37.76
2024-05-09T10:59:21.017Z,37.85
2024-05-09T11:00:27.618Z,38.22
2024-05-09T11:01:23.130Z,38.58
2024-05-09T11:02:21.274Z,38.45
2024-05-09T11:03:21.019Z,38.68
2024-05-09T11:04:21.138Z,38.98
2024-05-09T11:05:21.136Z,39.21
2024-05-09T11:06:20.976Z,38.89
2024-05-09T11:07:21.104Z,38.20
2024-05-09T11:08:20.923Z,38.01
2024-05-09T11:09:20.922Z,37.14
2024-05-09T11:10:27.659Z,35.17
2024-05-09T11:11:23.000Z,34.04
2024-05-09T11:12:22.817Z,33.97
2024-05-09T11:13:21.963Z,33.60
2024-05-09T11:14:20.880Z,32.61
2024-05-09T11:15:20.892Z,32.13
2024-05-09T11:16:21.428Z,31.77
2024-05-09T11:17:21.026Z,32.30
2024-05-09T11:18:24.277Z,32.70
2024-05-09T11:19:21.038Z,33.49
2024-05-09T11:20:26.934Z,34.14
2024-05-09T11:21:21.856Z,34.64
2024-05-09T11:22:20.865Z,34.61
2024-05-09T11:23:20.832Z,34.83
2024-05-09T11:24:20.841Z,34.56
2024-05-09T11:25:20.852Z,34.39
2024-05-09T11:26:20.874Z,34.20
2024-05-09T11:27:20.824Z,34.42
2024-05-09T11:28:20.911Z,34.81
2024-05-09T11:29:20.864Z,33.86
2024-05-09T11:30:26.822Z,32.02
2024-05-09T11:31:23.254Z,29.86
2024-05-09T11:32:20.843Z,29.77
2024-05-09T11:33:20.795Z,30.12
2024-05-09T11:34:20.793Z,30.80
2024-05-09T11:35:20.774Z,30.98
2024-05-09T11:36:20.752Z,31.45
2024-05-09T11:37:20.861Z,32.05
2024-05-09T11:38:20.768Z,32.81
2024-05-09T11:39:20.749Z,33.36
2024-05-09T11:40:25.439Z,33.95
2024-05-09T11:41:22.731Z,34.34
2024-05-09T11:42:20.731Z,34.02
2024-05-09T11:43:20.843Z,33.79
2024-05-09T11:44:20.704Z,33.31
2024-05-09T11:45:20.704Z,33.10
2024-05-09T11:46:20.790Z,32.80
2024-05-09T11:47:20.736Z,32.06
2024-05-09T11:48:20.961Z,31.64
2024-05-09T11:49:22.006Z,31.38
2024-05-09T11:50:27.182Z,31.33
2024-05-09T11:51:22.668Z,30.91
2024-05-09T11:52:20.720Z,30.89
2024-05-09T11:53:20.664Z,30.89
2024-05-09T11:54:20.675Z,30.84
2024-05-09T11:55:22.040Z,30.91
2024-05-09T11:56:20.658Z,31.21
2024-05-09T11:57:20.635Z,31.61
2024-05-09T11:58:20.759Z,31.64
2024-05-09T11:59:20.629Z,31.68
2024-05-09T12:00:29.186Z,32.13
2024-05-09T12:01:25.080Z,32.48
2024-05-09T12:02:20.830Z,32.57
2024-05-09T12:03:20.659Z,32.52
2024-05-09T12:04:20.791Z,32.67
2024-05-09T12:05:20.938Z,33.19
2024-05-09T12:06:20.586Z,33.46
2024-05-09T12:07:20.606Z,32.36
2024-05-09T12:08:20.585Z,31.50
2024-05-09T12:09:20.564Z,31.11
2024-05-09T12:10:26.031Z,30.87
2024-05-09T12:11:21.563Z,31.05
2024-05-09T12:12:20.548Z,30.94
2024-05-09T12:13:20.664Z,30.86
2024-05-09T12:14:20.543Z,30.78
2024-05-09T12:15:20.529Z,30.50
2024-05-09T12:16:20.748Z,30.30
2024-05-09T12:17:20.643Z,30.23
2024-05-09T12:18:20.540Z,29.86
2024-05-09T12:19:20.502Z,29.65
2024-05-09T12:20:28.554Z,29.01
2024-05-09T12:21:22.496Z,28.44
2024-05-09T12:22:20.501Z,28.23
2024-05-09T12:23:20.470Z,27.96
2024-05-09T12:24:20.469Z,27.89
2024-05-09T12:25:20.516Z,27.91
2024-05-09T12:26:20.466Z,28.07
2024-05-09T12:27:20.446Z,28.47
2024-05-09T12:28:20.605Z,28.03
2024-05-09T12:29:20.435Z,28.23
2024-05-09T12:30:32.422Z,28.56
2024-05-09T12:31:22.486Z,28.97
2024-05-09T12:32:20.481Z,29.33
2024-05-09T12:33:20.470Z,29.56
2024-05-09T12:34:20.527Z,29.31
2024-05-09T12:35:20.404Z,29.37
2024-05-09T12:36:20.383Z,28.96
2024-05-09T12:37:20.415Z,28.63
2024-05-09T12:38:20.367Z,28.90
2024-05-09T12:39:20.372Z,29.15
2024-05-09T12:40:30.662Z,29.06
2024-05-09T12:41:22.363Z,28.84
2024-05-09T12:42:27.146Z,28.87
2024-05-09T12:43:22.642Z,29.11
2024-05-09T12:44:20.338Z,28.62
2024-05-09T12:45:20.355Z,28.14
2024-05-09T12:46:20.388Z,27.99
2024-05-09T12:47:20.364Z,28.16
2024-05-09T12:48:20.376Z,28.13
2024-05-09T12:49:20.648Z,28.25
2024-05-09T12:50:29.134Z,28.21
2024-05-09T12:51:22.291Z,27.96
2024-05-09T12:52:20.321Z,27.96
2024-05-09T12:53:20.324Z,27.99
2024-05-09T12:54:20.274Z,28.11
2024-05-09T12:55:20.317Z,28.09
2024-05-09T12:56:20.257Z,28.03
2024-05-09T12:57:20.254Z,27.84
2024-05-09T12:58:20.314Z,27.79
2024-05-09T12:59:20.240Z,27.58
2024-05-09T13:00:27.419Z,27.48
2024-05-09T13:01:22.364Z,27.36
2024-05-09T13:02:20.462Z,27.23
2024-05-09T13:03:20.494Z,27.24
2024-05-09T13:04:20.338Z,27.33
2024-05-09T13:05:20.461Z,27.48
2024-05-09T13:06:20.217Z,27.54
2024-05-09T13:07:20.391Z,27.67
2024-05-09T13:08:20.187Z,27.88
2024-05-09T13:09:20.182Z,28.17
2024-05-09T13:10:28.870Z,28.21